CNS4 weather

Alexandria Aerodrome
Alexandria, Ontario, Canada

Public forecast

Using degrees Celsius for public forecast. Weather courtesy of forecast.io.

METAR (pilot weather report)

Closest report is Massena International Richards Field, 25.5 nm (47.2 km) SSW. Retrieved 2019/01/17 15:53 UTC (1 hour ago):

KMSS 171553Z AUTO 24005KT 10SM CLR M16/M22 A3047 RMK AO2 SLP331 T11611217

TAF (pilot weather forecast)

Closest forecast is Massena International Richards Field, 25.5 nm (47.2 km) SSW. Retrieved 2019/01/17 12:45 UTC (4 hours ago):

TAF KMSS 171142Z 1712/1812 00000KT P6SM FEW200 FM180700 VRB04KT P6SM VCSH OVC050 FM181100 VRB03KT 2SM -SHSN BR OVC020